DLH221 LSZH-EDDF
Flight info
| Callsign | DLH221 |
|---|---|
| Flight time | N/A |
| Altitude | 20000 |
| Route | DEGES Z1 SUDEN T164 KOVAN T163 SPESA SPESA5C |
| Aircraft | A320/M-SDE3FGHIRWY/LB1 |
Departure
| Time | 2026-04-26 20:23 |
|---|---|
| Airport | Zürich Airport (LSZH) |
Arrival
| Time | N/A |
|---|---|
| Airport | Frankfurt Main Airport (EDDF) |
| Time | Latitude | Longitude | Altitude | Speed | Heading |
|---|---|---|---|---|---|
| 2026-04-26 19:45 | 47.45427 | 8.55803 | 1397 ft | 0 kts | 186° |
| 2026-04-26 20:14 | 47.45434 | 8.55804 | 1406 ft | 4 kts | 185° |
| 2026-04-26 20:15 | 47.45461 | 8.55807 | 1401 ft | 4 kts | 178° |
| 2026-04-26 20:15 | 47.45488 | 8.55802 | 1398 ft | 4 kts | 159° |
| 2026-04-26 20:15 | 47.45506 | 8.55783 | 1404 ft | 3 kts | 102° |
| 2026-04-26 20:15 | 47.45507 | 8.55777 | 1402 ft | 0 kts | 96° |
| 2026-04-26 20:20 | 47.45506 | 8.55787 | 1404 ft | 6 kts | 96° |
| 2026-04-26 20:20 | 47.45494 | 8.55941 | 1397 ft | 21 kts | 97° |
| 2026-04-26 20:20 | 47.45478 | 8.56162 | 1397 ft | 20 kts | 96° |
| 2026-04-26 20:21 | 47.45548 | 8.56252 | 1402 ft | 15 kts | 7° |
| 2026-04-26 20:21 | 47.45660 | 8.56272 | 1396 ft | 17 kts | 6° |
| 2026-04-26 20:21 | 47.45775 | 8.56290 | 1402 ft | 16 kts | 5° |
| 2026-04-26 20:21 | 47.45903 | 8.56310 | 1407 ft | 21 kts | 6° |
| 2026-04-26 20:22 | 47.46058 | 8.56335 | 1405 ft | 24 kts | 6° |
| 2026-04-26 20:22 | 47.46205 | 8.56323 | 1399 ft | 17 kts | 314° |
| 2026-04-26 20:22 | 47.46281 | 8.56237 | 1402 ft | 16 kts | 317° |
| 2026-04-26 20:22 | 47.46391 | 8.56097 | 1403 ft | 33 kts | 321° |
| 2026-04-26 20:23 | 47.46744 | 8.55612 | 1404 ft | 101 kts | 317° |
| 2026-04-26 20:23 | 47.47401 | 8.54715 | 1400 ft | 153 kts | 317° |
| 2026-04-26 20:23 | 47.48248 | 8.53584 | 1801 ft | 164 kts | 319° |
| 2026-04-26 20:23 | 47.49106 | 8.52453 | 2483 ft | 166 kts | 320° |
| 2026-04-26 20:24 | 47.50043 | 8.51479 | 3122 ft | 165 kts | 335° |
| 2026-04-26 20:24 | 47.51096 | 8.50617 | 3484 ft | 183 kts | 335° |
| 2026-04-26 20:24 | 47.52244 | 8.49555 | 3750 ft | 208 kts | 322° |
| 2026-04-26 20:24 | 47.53169 | 8.47764 | 4032 ft | 231 kts | 296° |
| 2026-04-26 20:25 | 47.53529 | 8.45424 | 4601 ft | 240 kts | 270° |
| 2026-04-26 20:25 | 47.53383 | 8.43804 | 5116 ft | 240 kts | 253° |
| 2026-04-26 20:25 | 47.52488 | 8.40778 | 6200 ft | 239 kts | 245° |
| 2026-04-26 20:25 | 47.51714 | 8.38607 | 7015 ft | 239 kts | 231° |
| 2026-04-26 20:26 | 47.50367 | 8.37213 | 7721 ft | 241 kts | 194° |
| 2026-04-26 20:26 | 47.48716 | 8.37214 | 8432 ft | 242 kts | 161° |
| 2026-04-26 20:26 | 47.47329 | 8.38595 | 9159 ft | 245 kts | 127° |
| 2026-04-26 20:26 | 47.46431 | 8.40757 | 9884 ft | 249 kts | 118° |
| 2026-04-26 20:27 | 47.45815 | 8.43165 | 10536 ft | 254 kts | 100° |
| 2026-04-26 20:27 | 47.45695 | 8.45869 | 10857 ft | 276 kts | 89° |
| 2026-04-26 20:27 | 47.45713 | 8.48827 | 11115 ft | 299 kts | 89° |
| 2026-04-26 20:27 | 47.45721 | 8.52026 | 11345 ft | 323 kts | 89° |
| 2026-04-26 20:28 | 47.45728 | 8.55459 | 11550 ft | 346 kts | 89° |
| 2026-04-26 20:28 | 47.45802 | 8.59129 | 11699 ft | 369 kts | 87° |
| 2026-04-26 20:28 | 47.45939 | 8.63053 | 12044 ft | 383 kts | 86° |
| 2026-04-26 20:28 | 47.46104 | 8.67007 | 12652 ft | 389 kts | 86° |
| 2026-04-26 20:29 | 47.46274 | 8.71021 | 13299 ft | 393 kts | 86° |
| 2026-04-26 20:29 | 47.46443 | 8.75079 | 13939 ft | 398 kts | 86° |
| 2026-04-26 20:29 | 47.46600 | 8.79053 | 14505 ft | 402 kts | 86° |
| 2026-04-26 20:29 | 47.46521 | 8.83202 | 15060 ft | 406 kts | 96° |
| 2026-04-26 20:30 | 47.45995 | 8.87319 | 15625 ft | 410 kts | 102° |
| 2026-04-26 20:30 | 47.45383 | 8.91454 | 16162 ft | 413 kts | 102° |
| 2026-04-26 20:30 | 47.44772 | 8.95638 | 16467 ft | 424 kts | 101° |
| 2026-04-26 20:30 | 47.44152 | 8.99971 | 16598 ft | 437 kts | 101° |
| 2026-04-26 20:31 | 47.43520 | 9.04420 | 16831 ft | 446 kts | 101° |
| 2026-04-26 20:31 | 47.42883 | 9.08880 | 17571 ft | 441 kts | 101° |
| 2026-04-26 20:31 | 47.42337 | 9.13291 | 18491 ft | 432 kts | 95° |
| 2026-04-26 20:31 | 47.42266 | 9.17668 | 19315 ft | 422 kts | 84° |
| 2026-04-26 20:32 | 47.42685 | 9.21928 | 19885 ft | 421 kts | 74° |
| 2026-04-26 20:32 | 47.43606 | 9.26055 | 20111 ft | 427 kts | 63° |
| 2026-04-26 20:32 | 47.45022 | 9.29958 | 20332 ft | 434 kts | 57° |
| 2026-04-26 20:32 | 47.46679 | 9.33705 | 20569 ft | 439 kts | 49° |
| 2026-04-26 20:33 | 47.48706 | 9.37095 | 20815 ft | 441 kts | 41° |
| 2026-04-26 20:33 | 47.51099 | 9.40048 | 21102 ft | 443 kts | 32° |
| 2026-04-26 20:33 | 47.53758 | 9.42409 | 21205 ft | 448 kts | 23° |
| 2026-04-26 20:33 | 47.56640 | 9.44109 | 21217 ft | 447 kts | 14° |
| 2026-04-26 20:34 | 47.59671 | 9.45083 | 21225 ft | 444 kts | 4° |
| 2026-04-26 20:34 | 47.62742 | 9.45397 | 21223 ft | 443 kts | 0° |
| 2026-04-26 20:34 | 47.65820 | 9.45593 | 21218 ft | 443 kts | 360° |
| 2026-04-26 20:34 | 47.68897 | 9.45755 | 21224 ft | 443 kts | 359° |
| 2026-04-26 20:35 | 47.71978 | 9.45902 | 21223 ft | 443 kts | 359° |
| 2026-04-26 20:35 | 47.75060 | 9.46042 | 21223 ft | 443 kts | 359° |
| 2026-04-26 20:35 | 47.78129 | 9.46185 | 21219 ft | 443 kts | 359° |
| 2026-04-26 20:35 | 47.81217 | 9.46326 | 21220 ft | 443 kts | 359° |
| 2026-04-26 20:36 | 47.84293 | 9.46390 | 21226 ft | 442 kts | 358° |
| 2026-04-26 20:36 | 47.87370 | 9.46384 | 21213 ft | 442 kts | 358° |
| 2026-04-26 20:36 | 47.90449 | 9.46336 | 21216 ft | 442 kts | 357° |
| 2026-04-26 20:36 | 47.93522 | 9.46284 | 21218 ft | 442 kts | 358° |
| 2026-04-26 20:37 | 47.96599 | 9.46242 | 21216 ft | 442 kts | 358° |
| 2026-04-26 20:37 | 47.99676 | 9.46221 | 21232 ft | 441 kts | 358° |
| 2026-04-26 20:37 | 48.02749 | 9.46209 | 21476 ft | 441 kts | 358° |
| 2026-04-26 20:37 | 48.05818 | 9.46204 | 21750 ft | 443 kts | 358° |
| 2026-04-26 20:38 | 48.08912 | 9.46207 | 22008 ft | 445 kts | 358° |
| 2026-04-26 20:38 | 48.12013 | 9.46214 | 22185 ft | 446 kts | 358° |
| 2026-04-26 20:38 | 48.15116 | 9.46214 | 22227 ft | 446 kts | 358° |
| 2026-04-26 20:38 | 48.18217 | 9.46208 | 22226 ft | 446 kts | 358° |
| 2026-04-26 20:39 | 48.21319 | 9.46203 | 22227 ft | 446 kts | 358° |
| 2026-04-26 20:39 | 48.23414 | 9.46203 | 22227 ft | 446 kts | 358° |
| 2026-04-26 20:39 | 48.27527 | 9.46204 | 22229 ft | 445 kts | 358° |
| 2026-04-26 20:39 | 48.30661 | 9.46207 | 22227 ft | 444 kts | 359° |
| 2026-04-26 20:40 | 48.33749 | 9.46212 | 22224 ft | 444 kts | 359° |
| 2026-04-26 20:40 | 48.36837 | 9.46213 | 22223 ft | 444 kts | 359° |
| 2026-04-26 20:40 | 48.39920 | 9.46213 | 22221 ft | 443 kts | 358° |
| 2026-04-26 20:40 | 48.43008 | 9.46213 | 22220 ft | 443 kts | 358° |
| 2026-04-26 20:41 | 48.46085 | 9.46082 | 22217 ft | 442 kts | 352° |
| 2026-04-26 20:41 | 48.49092 | 9.45152 | 22217 ft | 441 kts | 342° |
| 2026-04-26 20:41 | 48.51907 | 9.43370 | 22216 ft | 440 kts | 331° |
| 2026-04-26 20:41 | 48.54446 | 9.40812 | 22218 ft | 440 kts | 321° |
| 2026-04-26 20:42 | 48.56621 | 9.37559 | 22214 ft | 441 kts | 310° |
| 2026-04-26 20:42 | 48.58392 | 9.33793 | 22236 ft | 441 kts | 304° |
| 2026-04-26 20:42 | 48.60203 | 9.30051 | 22235 ft | 440 kts | 311° |
| 2026-04-26 20:42 | 48.62378 | 9.26812 | 22237 ft | 440 kts | 321° |
| 2026-04-26 20:43 | 48.64880 | 9.24154 | 22237 ft | 439 kts | 330° |
| 2026-04-26 20:43 | 48.67625 | 9.22126 | 22238 ft | 440 kts | 336° |
| 2026-04-26 20:43 | 48.70425 | 9.20286 | 22238 ft | 440 kts | 336° |
| 2026-04-26 20:43 | 48.73235 | 9.18423 | 22236 ft | 440 kts | 336° |
| 2026-04-26 20:44 | 48.76033 | 9.16561 | 22228 ft | 440 kts | 336° |
| 2026-04-26 20:44 | 48.78832 | 9.14700 | 22233 ft | 440 kts | 336° |
| 2026-04-26 20:44 | 48.81635 | 9.12835 | 22236 ft | 439 kts | 336° |
| 2026-04-26 20:44 | 48.84439 | 9.10991 | 22233 ft | 439 kts | 338° |
| 2026-04-26 20:45 | 48.86399 | 9.09989 | 22233 ft | 440 kts | 344° |
| 2026-04-26 20:45 | 48.89403 | 9.09125 | 22232 ft | 441 kts | 353° |
| 2026-04-26 20:45 | 48.92476 | 9.09035 | 22228 ft | 442 kts | 2° |
| 2026-04-26 20:45 | 48.95537 | 9.09466 | 22241 ft | 443 kts | 4° |
| 2026-04-26 20:46 | 48.98611 | 9.09909 | 22229 ft | 443 kts | 4° |
| 2026-04-26 20:46 | 49.01684 | 9.10346 | 22225 ft | 443 kts | 4° |
| 2026-04-26 20:46 | 49.04751 | 9.10784 | 22221 ft | 443 kts | 4° |
| 2026-04-26 20:46 | 49.07823 | 9.11223 | 22223 ft | 443 kts | 4° |
| 2026-04-26 20:47 | 49.10894 | 9.11664 | 22224 ft | 444 kts | 4° |
| 2026-04-26 20:47 | 49.12932 | 9.11960 | 22224 ft | 444 kts | 4° |
| 2026-04-26 20:47 | 49.17045 | 9.12559 | 22229 ft | 444 kts | 4° |
| 2026-04-26 20:47 | 49.20116 | 9.12996 | 22226 ft | 444 kts | 3° |
| 2026-04-26 20:48 | 49.23202 | 9.13429 | 22227 ft | 444 kts | 3° |
| 2026-04-26 20:48 | 49.26271 | 9.13858 | 22228 ft | 444 kts | 3° |
| 2026-04-26 20:48 | 49.29347 | 9.14294 | 22228 ft | 444 kts | 4° |
| 2026-04-26 20:48 | 49.32417 | 9.14733 | 22227 ft | 444 kts | 4° |
| 2026-04-26 20:49 | 49.35497 | 9.15173 | 22229 ft | 444 kts | 3° |
| 2026-04-26 20:49 | 49.38573 | 9.15611 | 22239 ft | 444 kts | 3° |
| 2026-04-26 20:49 | 49.41652 | 9.16054 | 22236 ft | 444 kts | 3° |
| 2026-04-26 20:49 | 49.44726 | 9.16499 | 22230 ft | 444 kts | 3° |
| 2026-04-26 20:50 | 49.47805 | 9.16943 | 22227 ft | 444 kts | 3° |
| 2026-04-26 20:50 | 49.50886 | 9.17388 | 22226 ft | 444 kts | 3° |
| 2026-04-26 20:50 | 49.53961 | 9.17828 | 22228 ft | 445 kts | 3° |
| 2026-04-26 20:50 | 49.57049 | 9.18274 | 22228 ft | 445 kts | 3° |
| 2026-04-26 20:51 | 49.60124 | 9.18723 | 22225 ft | 445 kts | 3° |
| 2026-04-26 20:51 | 49.63218 | 9.19507 | 22229 ft | 448 kts | 13° |
| 2026-04-26 20:51 | 49.66120 | 9.21298 | 22229 ft | 451 kts | 26° |
| 2026-04-26 20:51 | 49.68655 | 9.23996 | 22165 ft | 436 kts | 38° |
| 2026-04-26 20:52 | 49.70772 | 9.27150 | 22029 ft | 419 kts | 39° |
| 2026-04-26 20:52 | 49.73114 | 9.29710 | 21897 ft | 398 kts | 25° |
| 2026-04-26 20:52 | 49.75603 | 9.31326 | 21773 ft | 379 kts | 14° |
| 2026-04-26 20:52 | 49.78111 | 9.32232 | 21628 ft | 363 kts | 8° |
| 2026-04-26 20:53 | 49.80559 | 9.32651 | 21511 ft | 347 kts | 356° |
| 2026-04-26 20:53 | 49.82886 | 9.32082 | 21381 ft | 331 kts | 340° |
| 2026-04-26 20:53 | 49.84936 | 9.30649 | 20975 ft | 319 kts | 326° |
| 2026-04-26 20:53 | 49.86621 | 9.28455 | 20306 ft | 314 kts | 310° |
| 2026-04-26 20:54 | 49.87846 | 9.25677 | 19627 ft | 312 kts | 296° |
| 2026-04-26 20:54 | 49.88591 | 9.22528 | 18961 ft | 311 kts | 287° |
| 2026-04-26 20:54 | 49.89197 | 9.19318 | 18277 ft | 310 kts | 287° |
| 2026-04-26 20:54 | 49.89802 | 9.16124 | 17593 ft | 308 kts | 287° |
| 2026-04-26 20:55 | 49.90403 | 9.12952 | 16933 ft | 305 kts | 287° |
| 2026-04-26 20:55 | 49.90998 | 9.09814 | 16301 ft | 302 kts | 287° |
| 2026-04-26 20:55 | 49.91588 | 9.06703 | 15693 ft | 299 kts | 287° |
| 2026-04-26 20:55 | 49.92172 | 9.03620 | 15102 ft | 297 kts | 287° |
| 2026-04-26 20:56 | 49.92756 | 9.00568 | 14530 ft | 294 kts | 288° |
| 2026-04-26 20:56 | 49.93339 | 8.97537 | 13951 ft | 292 kts | 288° |
| 2026-04-26 20:56 | 49.93919 | 8.94533 | 13323 ft | 289 kts | 288° |
| 2026-04-26 20:56 | 49.94490 | 8.91554 | 12709 ft | 287 kts | 288° |
| 2026-04-26 20:57 | 49.95052 | 8.88596 | 12093 ft | 284 kts | 288° |
| 2026-04-26 20:57 | 49.95605 | 8.85669 | 11508 ft | 281 kts | 288° |
| 2026-04-26 20:57 | 49.96152 | 8.82768 | 10923 ft | 279 kts | 288° |
| 2026-04-26 20:57 | 49.96695 | 8.79897 | 10334 ft | 276 kts | 289° |
| 2026-04-26 20:58 | 49.97240 | 8.77021 | 9941 ft | 276 kts | 289° |
| 2026-04-26 20:58 | 49.97740 | 8.74155 | 9573 ft | 276 kts | 282° |
| 2026-04-26 20:58 | 49.97833 | 8.71178 | 9194 ft | 277 kts | 267° |
| 2026-04-26 20:58 | 49.97424 | 8.68251 | 8815 ft | 279 kts | 253° |
| 2026-04-26 20:59 | 49.96734 | 8.65393 | 8417 ft | 279 kts | 252° |
| 2026-04-26 20:59 | 49.96054 | 8.62581 | 8038 ft | 277 kts | 252° |
| 2026-04-26 20:59 | 49.95377 | 8.59783 | 7660 ft | 276 kts | 252° |
| 2026-04-26 20:59 | 49.94704 | 8.57006 | 7285 ft | 275 kts | 252° |
| 2026-04-26 21:00 | 49.94034 | 8.54234 | 6907 ft | 273 kts | 252° |
| 2026-04-26 21:00 | 49.93371 | 8.51482 | 6525 ft | 272 kts | 251° |
| 2026-04-26 21:00 | 49.92708 | 8.48742 | 6114 ft | 270 kts | 251° |
| 2026-04-26 21:00 | 49.92048 | 8.46014 | 5683 ft | 269 kts | 251° |
| 2026-04-26 21:01 | 49.91393 | 8.43300 | 5301 ft | 268 kts | 251° |
| 2026-04-26 21:01 | 49.90743 | 8.40597 | 5225 ft | 268 kts | 251° |
| 2026-04-26 21:01 | 49.90092 | 8.37884 | 5235 ft | 269 kts | 251° |
| 2026-04-26 21:01 | 49.89435 | 8.35160 | 5238 ft | 270 kts | 250° |
| 2026-04-26 21:02 | 49.88774 | 8.32435 | 5245 ft | 270 kts | 251° |
| 2026-04-26 21:02 | 49.88114 | 8.29707 | 5250 ft | 270 kts | 251° |
| 2026-04-26 21:02 | 49.87451 | 8.26978 | 5249 ft | 270 kts | 251° |
| 2026-04-26 21:02 | 49.86790 | 8.24261 | 5249 ft | 270 kts | 251° |
| 2026-04-26 21:03 | 49.86126 | 8.21531 | 5250 ft | 270 kts | 251° |
| 2026-04-26 21:03 | 49.85461 | 8.18810 | 5251 ft | 270 kts | 251° |
| 2026-04-26 21:03 | 49.84799 | 8.16090 | 5255 ft | 270 kts | 251° |
| 2026-04-26 21:03 | 49.84135 | 8.13361 | 5251 ft | 270 kts | 251° |
| 2026-04-26 21:04 | 49.83473 | 8.10642 | 5131 ft | 268 kts | 251° |
| 2026-04-26 21:04 | 49.82814 | 8.07945 | 4967 ft | 268 kts | 251° |
| 2026-04-26 21:04 | 49.82152 | 8.05243 | 4987 ft | 269 kts | 251° |
| 2026-04-26 21:04 | 49.81488 | 8.02532 | 4986 ft | 270 kts | 251° |
| 2026-04-26 21:05 | 49.80823 | 7.99815 | 4977 ft | 270 kts | 251° |
| 2026-04-26 21:05 | 49.80159 | 7.97104 | 4992 ft | 270 kts | 251° |
| 2026-04-26 21:05 | 49.79490 | 7.94391 | 4995 ft | 270 kts | 251° |
| 2026-04-26 21:05 | 49.78815 | 7.91678 | 4991 ft | 270 kts | 251° |
| 2026-04-26 21:06 | 49.78137 | 7.88972 | 4976 ft | 270 kts | 250° |
| 2026-04-26 21:06 | 49.77447 | 7.86232 | 4987 ft | 270 kts | 250° |
| 2026-04-26 21:06 | 49.76765 | 7.83531 | 4988 ft | 270 kts | 250° |
| 2026-04-26 21:06 | 49.76082 | 7.80826 | 4984 ft | 270 kts | 250° |
| 2026-04-26 21:07 | 49.75447 | 7.78101 | 4981 ft | 269 kts | 260° |
| 2026-04-26 21:07 | 49.75485 | 7.75269 | 4987 ft | 264 kts | 288° |
| 2026-04-26 21:07 | 49.76387 | 7.72860 | 4987 ft | 260 kts | 317° |
| 2026-04-26 21:07 | 49.77868 | 7.71286 | 4995 ft | 260 kts | 332° |
| 2026-04-26 21:08 | 49.79495 | 7.70068 | 4991 ft | 259 kts | 338° |
| 2026-04-26 21:08 | 49.81181 | 7.69132 | 4988 ft | 257 kts | 342° |
| 2026-04-26 21:08 | 49.82925 | 7.68591 | 4985 ft | 257 kts | 2° |
| 2026-04-26 21:08 | 49.84627 | 7.69357 | 4989 ft | 259 kts | 30° |
| 2026-04-26 21:09 | 49.85937 | 7.71281 | 4991 ft | 263 kts | 54° |
| 2026-04-26 21:09 | 49.86676 | 7.73879 | 4998 ft | 267 kts | 74° |
| 2026-04-26 21:09 | 49.87123 | 7.76665 | 4994 ft | 266 kts | 71° |
| 2026-04-26 21:09 | 49.87710 | 7.79379 | 4991 ft | 266 kts | 70° |
| 2026-04-26 21:10 | 49.88277 | 7.82106 | 4991 ft | 266 kts | 70° |
| 2026-04-26 21:10 | 49.88836 | 7.84845 | 4999 ft | 266 kts | 70° |
| 2026-04-26 21:10 | 49.89391 | 7.87578 | 4995 ft | 266 kts | 71° |
| 2026-04-26 21:10 | 49.89923 | 7.90326 | 4996 ft | 266 kts | 71° |
| 2026-04-26 21:11 | 49.90493 | 7.93050 | 4997 ft | 265 kts | 68° |
| 2026-04-26 21:11 | 49.91147 | 7.95720 | 4996 ft | 265 kts | 68° |
| 2026-04-26 21:11 | 49.91774 | 7.98416 | 4998 ft | 265 kts | 69° |
| 2026-04-26 21:11 | 49.92393 | 8.01118 | 5000 ft | 266 kts | 69° |
| 2026-04-26 21:12 | 49.93018 | 8.03818 | 4997 ft | 266 kts | 69° |
| 2026-04-26 21:12 | 49.93646 | 8.06527 | 5000 ft | 267 kts | 69° |
| 2026-04-26 21:12 | 49.94274 | 8.09235 | 4995 ft | 266 kts | 69° |
| 2026-04-26 21:12 | 49.94901 | 8.11944 | 5000 ft | 266 kts | 69° |
| 2026-04-26 21:13 | 49.95527 | 8.14648 | 5001 ft | 266 kts | 69° |
| 2026-04-26 21:13 | 49.96155 | 8.17358 | 4990 ft | 267 kts | 69° |
| 2026-04-26 21:13 | 49.96790 | 8.20101 | 4993 ft | 266 kts | 69° |
| 2026-04-26 21:13 | 49.97417 | 8.22805 | 4993 ft | 266 kts | 69° |
| 2026-04-26 21:14 | 49.98055 | 8.25507 | 4991 ft | 265 kts | 68° |
| 2026-04-26 21:14 | 49.99011 | 8.27915 | 5007 ft | 263 kts | 43° |
| 2026-04-26 21:14 | 50.00577 | 8.29317 | 5005 ft | 262 kts | 14° |
| 2026-04-26 21:14 | 50.02382 | 8.29479 | 5008 ft | 262 kts | 356° |
| 2026-04-26 21:15 | 50.04179 | 8.29026 | 5009 ft | 262 kts | 344° |
| 2026-04-26 21:15 | 50.05889 | 8.28042 | 5008 ft | 263 kts | 335° |
| 2026-04-26 21:15 | 50.07420 | 8.26528 | 5006 ft | 263 kts | 314° |
| 2026-04-26 21:15 | 50.08336 | 8.24083 | 5004 ft | 265 kts | 285° |
| 2026-04-26 21:16 | 50.08387 | 8.21233 | 5006 ft | 267 kts | 259° |
| 2026-04-26 21:16 | 50.07902 | 8.18441 | 5010 ft | 268 kts | 253° |
| 2026-04-26 21:16 | 50.07193 | 8.15758 | 5007 ft | 269 kts | 245° |
| 2026-04-26 21:16 | 50.06340 | 8.13162 | 5006 ft | 269 kts | 243° |
| 2026-04-26 21:17 | 50.05449 | 8.10598 | 5006 ft | 269 kts | 243° |
| 2026-04-26 21:17 | 50.04886 | 8.08875 | 4996 ft | 269 kts | 245° |
| 2026-04-26 21:17 | 50.04069 | 8.06261 | 5008 ft | 269 kts | 245° |
| 2026-04-26 21:17 | 50.02983 | 8.02760 | 5005 ft | 269 kts | 245° |
| 2026-04-26 21:18 | 50.02444 | 8.01024 | 5003 ft | 269 kts | 245° |
| 2026-04-26 21:18 | 50.01633 | 7.98408 | 5003 ft | 269 kts | 245° |
| 2026-04-26 21:18 | 50.00809 | 7.95752 | 5004 ft | 269 kts | 245° |
| 2026-04-26 21:18 | 49.99997 | 7.93134 | 5001 ft | 269 kts | 245° |
| 2026-04-26 21:19 | 49.99186 | 7.90522 | 5003 ft | 269 kts | 245° |
| 2026-04-26 21:19 | 49.98251 | 7.87998 | 5003 ft | 270 kts | 233° |
| 2026-04-26 21:19 | 49.96800 | 7.86178 | 4995 ft | 272 kts | 205° |
| 2026-04-26 21:19 | 49.94952 | 7.85620 | 4994 ft | 273 kts | 176° |
| 2026-04-26 21:20 | 49.93097 | 7.86273 | 4998 ft | 274 kts | 158° |
| 2026-04-26 21:20 | 49.91358 | 7.87475 | 4988 ft | 275 kts | 154° |
| 2026-04-26 21:20 | 49.89624 | 7.88755 | 4996 ft | 276 kts | 152° |
| 2026-04-26 21:20 | 49.88098 | 7.90498 | 4994 ft | 274 kts | 128° |
| 2026-04-26 21:21 | 49.87240 | 7.93078 | 4992 ft | 269 kts | 100° |
| 2026-04-26 21:21 | 49.87274 | 7.95927 | 4991 ft | 265 kts | 72° |
| 2026-04-26 21:21 | 49.87983 | 7.98546 | 4997 ft | 264 kts | 58° |
| 2026-04-26 21:21 | 49.88985 | 8.00923 | 4994 ft | 263 kts | 51° |
| 2026-04-26 21:22 | 49.90127 | 8.03140 | 4994 ft | 263 kts | 49° |
| 2026-04-26 21:22 | 49.91293 | 8.05323 | 4984 ft | 263 kts | 50° |
| 2026-04-26 21:22 | 49.92381 | 8.07606 | 5001 ft | 264 kts | 56° |
| 2026-04-26 21:23 | 49.94092 | 8.12675 | 5007 ft | 267 kts | 67° |
| 2026-04-26 21:23 | 49.94743 | 8.15372 | 5006 ft | 267 kts | 67° |
| 2026-04-26 21:23 | 49.95682 | 8.17810 | 5007 ft | 264 kts | 49° |
| 2026-04-26 21:23 | 49.96736 | 8.20211 | 4616 ft | 271 kts | 68° |
| 2026-04-26 21:24 | 49.97305 | 8.22958 | 4184 ft | 269 kts | 72° |
| 2026-04-26 21:24 | 49.97915 | 8.25727 | 3790 ft | 266 kts | 69° |
| 2026-04-26 21:24 | 49.98556 | 8.28372 | 3417 ft | 263 kts | 69° |
| 2026-04-26 21:24 | 49.99208 | 8.31041 | 3031 ft | 259 kts | 69° |
| 2026-04-26 21:25 | 49.99839 | 8.33648 | 2660 ft | 256 kts | 70° |
| 2026-04-26 21:25 | 50.00454 | 8.36194 | 2302 ft | 247 kts | 70° |
| 2026-04-26 21:25 | 50.01050 | 8.38668 | 1934 ft | 247 kts | 70° |
| 2026-04-26 21:25 | 50.01653 | 8.41169 | 1585 ft | 243 kts | 69° |
| 2026-04-26 21:26 | 50.02229 | 8.43562 | 1237 ft | 232 kts | 69° |
| 2026-04-26 21:26 | 50.02789 | 8.45892 | 915 ft | 228 kts | 69° |
| 2026-04-26 21:26 | 50.03363 | 8.48276 | 1010 ft | 237 kts | 68° |